Time;durP1;ratioP1;P1;durP2;ratioP2;P2;SDS_P1;SDS_P2;PMS_P1;PMS_P2;Temp;Humidity;BMP_temperature;BMP_pressure;BME280_temperature;BME280_humidity;BME280_pressure;Samples;Min_cycle;Max_cycle;Signal;HPM_P1;HPM_P2
2022/08/29 00:01:07;;;;;;;3.53;0.93;;;;;;;-142.37;100.00;59669.53;4975927;28;20029;-58
2022/08/29 00:04:31;;;;;;;3.97;1.45;;;;;;;-142.37;100.00;59669.53;4975468;28;20039;-57
2022/08/29 00:07:52;;;;;;;6.65;1.83;;;;;;;-142.37;100.00;59669.53;4974082;28;20483;-57
2022/08/29 00:11:16;;;;;;;2.33;0.98;;;;;;;-142.37;100.00;59669.53;4974050;28;20042;-57
2022/08/29 00:14:40;;;;;;;1.88;0.93;;;;;;;-142.37;100.00;59669.53;4974860;28;20391;-57
2022/08/29 00:18:06;;;;;;;4.53;1.27;;;;;;;-142.37;100.00;59669.53;4957527;28;20517;-57
2022/08/29 00:21:31;;;;;;;3.05;0.95;;;;;;;-142.37;100.00;59669.53;4975225;28;20027;-57
2022/08/29 00:24:55;;;;;;;3.00;1.48;;;;;;;-142.37;100.00;59669.53;4974863;28;20492;-57
2022/08/29 00:28:19;;;;;;;3.35;1.33;;;;;;;-142.37;100.00;59669.53;4974652;28;20082;-58
2022/08/29 00:31:44;;;;;;;5.88;1.15;;;;;;;-142.37;100.00;59669.53;4974883;28;20035;-57
2022/08/29 00:35:13;;;;;;;3.78;1.35;;;;;;;-142.37;100.00;59669.53;4957258;28;20121;-57
2022/08/29 00:38:38;;;;;;;3.88;1.40;;;;;;;-142.37;100.00;59669.53;4974804;28;20135;-57
2022/08/29 00:42:03;;;;;;;2.30;1.17;;;;;;;-142.37;100.00;59669.53;4957408;28;20077;-57
2022/08/29 00:45:29;;;;;;;4.03;1.20;;;;;;;-142.37;100.00;59669.53;4957355;28;20037;-57
2022/08/29 00:48:57;;;;;;;2.58;1.20;;;;;;;-142.37;100.00;59669.53;4974699;28;20054;-57
2022/08/29 00:52:27;;;;;;;1.45;0.90;;;;;;;-142.37;100.00;59669.53;4957541;28;20030;-58
2022/08/29 00:55:52;;;;;;;2.80;1.15;;;;;;;-142.37;100.00;59669.53;4974371;28;20065;-58
2022/08/29 00:59:25;;;;;;;3.85;1.30;;;;;;;-142.37;100.00;59669.53;4957039;28;20030;-57
2022/08/29 01:02:50;;;;;;;2.45;1.10;;;;;;;-142.37;100.00;59669.53;4957022;28;20034;-57
2022/08/29 01:06:16;;;;;;;6.20;1.30;;;;;;;-142.37;100.00;59669.53;4956796;28;20497;-57
2022/08/29 01:09:41;;;;;;;7.32;1.70;;;;;;;-142.37;100.00;59669.53;4956896;28;20034;-56
2022/08/29 01:13:08;;;;;;;2.83;1.27;;;;;;;-142.37;100.00;59669.53;4956462;28;20062;-57
2022/08/29 01:16:33;;;;;;;7.75;1.42;;;;;;;-142.37;100.00;59669.53;4973989;28;20030;-57
2022/08/29 01:20:10;;;;;;;3.03;1.15;;;;;;;-142.37;100.00;59669.53;4973517;28;20062;-57
2022/08/29 01:23:58;;;;;;;3.08;1.00;;;;;;;-142.37;100.00;59669.53;4956496;28;20085;-56
2022/08/29 01:27:25;;;;;;;;;;;;;;;-142.37;100.00;59669.53;4974267;28;20038;-57
2022/08/29 01:31:09;;;;;;;;;;;;;;;-142.37;100.00;59669.53;4956966;28;19918;-56
2022/08/29 01:34:36;;;;;;;2.72;0.85;;;;;;;-142.37;100.00;59669.53;4974030;28;19913;-56
2022/08/29 01:38:01;;;;;;;4.28;1.10;;;;;;;-142.37;100.00;59669.53;4973359;28;20035;-58
2022/08/29 01:41:27;;;;;;;4.20;1.10;;;;;;;-142.37;100.00;59669.53;4973626;28;20030;-58
2022/08/29 01:44:54;;;;;;;3.42;0.80;;;;;;;-142.37;100.00;59669.53;4956287;28;20030;-56
2022/08/29 01:48:20;;;;;;;3.45;0.82;;;;;;;-142.37;100.00;59669.53;4955803;28;20031;-57
2022/08/29 01:51:44;;;;;;;1.63;1.08;;;;;;;-142.37;100.00;59669.53;4973583;28;20038;-57
2022/08/29 01:55:09;;;;;;;2.92;0.73;;;;;;;-142.37;100.00;59669.53;4973541;28;20434;-58
2022/08/29 01:58:34;;;;;;;1.67;0.50;;;;;;;-142.37;100.00;59669.53;4973336;28;20053;-60
2022/08/29 02:02:16;;;;;;;1.95;0.80;;;;;;;-142.37;100.00;59669.53;4973297;28;20368;-60
2022/08/29 02:05:40;;;;;;;2.15;0.43;;;;;;;-142.37;100.00;59669.53;4956033;28;20137;-61
2022/08/29 02:09:05;;;;;;;0.95;0.60;;;;;;;-142.37;100.00;59669.53;4955949;28;20030;-60
2022/08/29 02:12:30;;;;;;;1.23;0.55;;;;;;;-142.37;100.00;59669.53;4973308;28;20178;-60
2022/08/29 02:15:54;;;;;;;6.97;0.90;;;;;;;-142.37;100.00;59669.53;4973317;28;20039;-60
2022/08/29 02:19:18;;;;;;;1.15;0.40;;;;;;;-142.37;100.00;59669.53;4955761;28;20034;-59
2022/08/29 02:22:43;;;;;;;2.72;0.95;;;;;;;-142.37;100.00;59669.53;4973254;28;20034;-60
2022/08/29 02:26:08;;;;;;;0.93;0.63;;;;;;;-142.37;100.00;59669.53;4955605;28;20030;-61
2022/08/29 02:29:34;;;;;;;1.52;0.65;;;;;;;-142.37;100.00;59669.53;4971771;28;20495;-62
2022/08/29 02:32:58;;;;;;;2.65;0.50;;;;;;;-142.37;100.00;59669.53;4976343;28;20398;-61
2022/08/29 02:36:23;;;;;;;6.80;0.90;;;;;;;-142.37;100.00;59669.53;4976864;28;20106;-60
2022/08/29 02:39:47;;;;;;;4.45;1.05;;;;;;;-142.37;100.00;59669.53;4976930;28;20038;-61
2022/08/29 02:43:11;;;;;;;2.53;0.70;;;;;;;-142.37;100.00;59669.53;4959656;28;20372;-62
2022/08/29 02:46:37;;;;;;;6.18;1.20;;;;;;;-142.37;100.00;59669.53;4976740;28;20030;-62
2022/08/29 02:50:06;;;;;;;4.90;0.98;;;;;;;-142.37;100.00;59669.53;4959216;28;20054;-63
2022/08/29 02:53:30;;;;;;;5.22;1.30;;;;;;;-142.37;100.00;59669.53;4959371;28;20034;-64
2022/08/29 02:56:55;;;;;;;1.35;1.08;;;;;;;-142.37;100.00;59669.53;4959036;28;20031;-67
2022/08/29 03:00:21;;;;;;;2.25;0.82;;;;;;;-142.37;100.00;59669.53;4959074;28;20034;-65
2022/08/29 03:03:46;;;;;;;;;;;;;;;-142.37;100.00;59669.53;4959655;28;20435;-64
2022/08/29 03:07:10;;;;;;;3.88;1.15;;;;;;;-142.37;100.00;59669.53;4976551;28;19930;-65
2022/08/29 03:10:35;;;;;;;3.08;0.85;;;;;;;-142.37;100.00;59669.53;4976263;28;20476;-65
2022/08/29 03:14:00;;;;;;;7.47;1.10;;;;;;;-142.37;100.00;59669.53;4958854;28;20503;-65
2022/08/29 03:17:24;;;;;;;2.28;1.00;;;;;;;-142.37;100.00;59669.53;4958714;28;20118;-65
2022/08/29 03:20:52;;;;;;;2.45;1.00;;;;;;;-142.37;100.00;59669.53;4976072;28;20030;-67
2022/08/29 03:24:16;;;;;;;2.53;0.73;;;;;;;-142.37;100.00;59669.53;4958312;28;20038;-66
2022/08/29 03:27:41;;;;;;;3.58;1.10;;;;;;;-142.37;100.00;59669.53;4958648;28;20055;-67
2022/08/29 03:31:08;;;;;;;1.85;0.80;;;;;;;-142.37;100.00;59669.53;4958959;28;20031;-68
2022/08/29 03:34:32;;;;;;;4.85;1.48;;;;;;;-142.37;100.00;59669.53;4975830;28;20034;-66
2022/08/29 03:37:57;;;;;;;4.50;0.98;;;;;;;-142.37;100.00;59669.53;4975661;28;20081;-67
2022/08/29 03:41:23;;;;;;;3.63;0.95;;;;;;;-142.37;100.00;59669.53;4958572;28;20084;-67
2022/08/29 03:44:47;;;;;;;4.45;0.82;;;;;;;-142.37;100.00;59669.53;4958271;28;20085;-68
2022/08/29 03:48:12;;;;;;;6.22;1.50;;;;;;;-142.37;100.00;59669.53;4975385;28;20038;-67
2022/08/29 03:51:37;;;;;;;3.08;0.90;;;;;;;-142.37;100.00;59669.53;4975740;28;20027;-66
2022/08/29 03:55:05;;;;;;;2.67;0.90;;;;;;;-142.37;100.00;59669.53;4975103;28;20030;-66
2022/08/29 03:58:29;;;;;;;2.00;1.20;;;;;;;-142.37;100.00;59669.53;4958237;28;20058;-66
2022/08/29 04:01:53;;;;;;;2.75;1.20;;;;;;;-142.37;100.00;59669.53;4975188;28;20037;-68
2022/08/29 04:05:17;;;;;;;4.40;1.13;;;;;;;-142.37;100.00;59669.53;4975268;28;20054;-69
2022/08/29 04:08:50;;;;;;;5.80;1.10;;;;;;;-142.37;100.00;59669.53;4974890;28;20026;-67
2022/08/29 04:12:15;;;;;;;3.63;0.95;;;;;;;-142.37;100.00;59669.53;4974993;28;20034;-67
2022/08/29 04:15:26;;;;;;;0.82;0.75;;;;;;;-142.37;100.00;59669.53;4957833;28;20038;-68
2022/08/29 04:18:54;;;;;;;4.07;1.85;;;;;;;-142.37;100.00;59669.53;4957932;28;20562;-67
2022/08/29 04:22:18;;;;;;;2.58;0.80;;;;;;;-142.37;100.00;59669.53;4957376;28;20392;-67
2022/08/29 04:25:43;;;;;;;4.68;1.23;;;;;;;-142.37;100.00;59669.53;4975183;28;20077;-68
2022/08/29 04:29:09;;;;;;;2.47;0.90;;;;;;;-142.37;100.00;59669.53;4957274;28;20057;-67
2022/08/29 04:31:35;;;;;;;;;;;;;;;-142.37;100.00;59669.53;4957672;28;20081;-67
2022/08/29 04:35:00;;;;;;;5.53;1.10;;;;;;;-142.37;100.00;59669.53;4974696;28;20017;-67
2022/08/29 04:38:25;;;;;;;4.32;0.90;;;;;;;-142.37;100.00;59669.53;4957099;28;20084;-67
2022/08/29 04:41:49;;;;;;;7.35;1.80;;;;;;;-142.37;100.00;59669.53;4974462;28;20037;-67
2022/08/29 04:45:16;;;;;;;2.40;0.82;;;;;;;-142.37;100.00;59669.53;4974539;28;20412;-68
2022/08/29 04:48:41;;;;;;;2.63;1.02;;;;;;;-142.37;100.00;59669.53;4974380;28;20035;-66
2022/08/29 04:51:10;;;;;;;3.47;0.93;;;;;;;-142.37;100.00;59669.53;4974626;28;20035;-67
2022/08/29 04:53:36;;;;;;;2.25;1.00;;;;;;;-142.37;100.00;59669.53;4956479;28;20035;-68
2022/08/29 04:56:06;;;;;;;6.15;1.30;;;;;;;-142.37;100.00;59669.53;4956750;28;20619;-69
2022/08/29 04:58:37;;;;;;;3.67;1.20;;;;;;;-142.37;100.00;59669.53;4956759;28;20027;-68
2022/08/29 05:01:04;;;;;;;3.38;0.90;;;;;;;-142.37;100.00;59669.53;4956148;28;20181;-68
2022/08/29 05:03:31;;;;;;;3.65;0.93;;;;;;;-142.37;100.00;59669.53;4973891;28;20058;-67
2022/08/29 05:06:07;;;;;;;3.05;1.15;;;;;;;-142.37;100.00;59669.53;4973878;28;20031;-68
2022/08/29 05:08:35;;;;;;;3.10;1.27;;;;;;;-142.37;100.00;59669.53;4972434;28;20039;-67
2022/08/29 05:11:01;;;;;;;3.20;1.10;;;;;;;-142.37;100.00;59669.53;4973943;28;20031;-67
2022/08/29 05:13:27;;;;;;;2.97;1.02;;;;;;;-142.37;100.00;59669.53;4973825;28;20031;-68
2022/08/29 05:15:53;;;;;;;2.22;1.05;;;;;;;-142.37;100.00;59669.53;4973324;28;20034;-68
2022/08/29 05:18:19;;;;;;;2.47;1.15;;;;;;;-142.37;100.00;59669.53;4973356;28;20061;-67
2022/08/29 05:20:47;;;;;;;4.40;1.60;;;;;;;-142.37;100.00;59669.53;4956239;28;20086;-67
2022/08/29 05:23:16;;;;;;;6.47;1.25;;;;;;;-142.37;100.00;59669.53;4973000;28;20477;-66
2022/08/29 05:25:43;;;;;;;2.20;1.10;;;;;;;-142.37;100.00;59669.53;4972961;28;20042;-67
2022/08/29 05:28:10;;;;;;;3.22;1.17;;;;;;;-142.37;100.00;59669.53;4972530;28;20054;-68
2022/08/29 05:30:39;;;;;;;2.90;1.00;;;;;;;-142.37;100.00;59669.53;4973533;28;20484;-66
2022/08/29 05:33:06;;;;;;;4.90;1.40;;;;;;;-142.37;100.00;59669.53;4972778;28;20023;-67
2022/08/29 05:35:33;;;;;;;5.13;0.90;;;;;;;-142.37;100.00;59669.53;4955285;28;20506;-66
2022/08/29 05:38:01;;;;;;;6.28;1.80;;;;;;;-142.37;100.00;59669.53;4972850;28;20037;-65
2022/08/29 05:40:27;;;;;;;5.80;1.77;;;;;;;-142.37;100.00;59669.53;4972338;28;20031;-67
2022/08/29 05:42:52;;;;;;;5.88;1.40;;;;;;;-142.37;100.00;59669.53;4972366;28;20042;-67
2022/08/29 05:45:18;;;;;;;4.05;1.20;;;;;;;-142.37;100.00;59669.53;4955136;28;20039;-67
2022/08/29 05:47:45;;;;;;;3.63;1.40;;;;;;;-142.37;100.00;59669.53;4955673;28;20030;-67
2022/08/29 05:50:12;;;;;;;7.53;1.75;;;;;;;-142.37;100.00;59669.53;4955396;28;20030;-67
2022/08/29 05:52:39;;;;;;;6.82;1.42;;;;;;;-142.37;100.00;59669.53;4954528;28;20056;-66
2022/08/29 05:55:05;;;;;;;3.72;1.23;;;;;;;-142.37;100.00;59669.53;4971507;28;20085;-66
2022/08/29 05:57:31;;;;;;;4.03;1.15;;;;;;;-142.37;100.00;59669.53;4971980;28;20499;-67
2022/08/29 05:59:56;;;;;;;4.82;1.42;;;;;;;-142.37;100.00;59669.53;4971457;28;20138;-68
2022/08/29 06:03:19;;;;;;;8.23;1.60;;;;;;;-142.37;100.00;59669.53;4955152;28;20106;-66
2022/08/29 06:06:49;;;;;;;3.80;0.82;;;;;;;-142.37;100.00;59669.53;4953718;28;20038;-67
2022/08/29 06:09:41;;;;;;;6.18;1.30;;;;;;;-142.37;100.00;59669.53;4954215;28;20506;-68
2022/08/29 06:12:22;;;;;;;3.63;1.05;;;;;;;-142.37;100.00;59669.53;4971747;28;20480;-67
2022/08/29 06:15:36;;;;;;;8.02;1.80;;;;;;;-142.37;100.00;77742.59;4972228;28;20030;-67
2022/08/29 06:18:14;;;;;;;2.72;0.90;;;;;;;12.52;65.91;59669.53;4954022;28;20033;-69
2022/08/29 06:20:40;;;;;;;6.18;1.30;;;;;;;-142.37;100.00;59669.53;4971298;28;20035;-67
2022/08/29 06:23:06;;;;;;;2.83;1.25;;;;;;;-142.37;100.00;59669.53;4954389;28;20038;-67
2022/08/29 06:26:30;;;;;;;5.75;2.20;;;;;;;-142.37;100.00;59669.53;4953659;28;20167;-67
2022/08/29 06:29:10;;;;;;;3.10;1.50;;;;;;;12.52;100.00;101721.44;4971821;28;20141;-68
2022/08/29 06:32:34;;;;;;;4.30;1.67;;;;;;;-142.37;100.00;59669.53;4971974;28;20097;-68
2022/08/29 06:35:08;;;;;;;2.65;1.38;;;;;;;12.52;97.35;52193.13;4953935;28;20064;-68
2022/08/29 06:38:32;;;;;;;5.57;1.70;;;;;;;-142.37;100.00;59669.53;4972021;28;20106;-67
2022/08/29 06:41:11;;;;;;;4.05;1.30;;;;;;;13.44;100.00;101759.53;4953637;28;20125;-68
2022/08/29 06:43:55;;;;;;;6.93;1.45;;;;;;;13.44;100.00;101762.22;4971653;28;20038;-67
2022/08/29 06:47:09;;;;;;;4.93;1.27;;;;;;;13.44;100.00;101759.53;4954227;28;20459;-67
2022/08/29 06:49:34;;;;;;;3.17;1.48;;;;;;;-142.37;100.00;59669.53;4971574;28;20121;-67
2022/08/29 06:52:00;;;;;;;8.02;1.63;;;;;;;13.55;100.00;101746.03;4971772;28;20078;-65
2022/08/29 06:54:27;;;;;;;3.38;1.33;;;;;;;13.63;100.00;101758.09;4971603;28;20035;-67
2022/08/29 06:56:54;;;;;;;4.45;1.63;;;;;;;13.67;100.00;101759.59;4953388;28;20041;-68
2022/08/29 07:00:20;;;;;;;5.38;1.17;;;;;;;-142.37;100.00;59669.53;4971042;28;20034;-67
2022/08/29 07:02:50;;;;;;;5.18;1.20;;;;;;;13.67;100.00;101759.59;4971715;28;20035;-67
2022/08/29 07:05:16;;;;;;;2.08;1.13;;;;;;;14.32;100.00;101759.81;4971764;28;20034;-66
2022/08/29 07:07:44;;;;;;;3.65;1.65;;;;;;;-142.37;100.00;59669.53;4971070;28;20042;-66
2022/08/29 07:10:24;;;;;;;3.95;1.20;;;;;;;-142.37;100.00;59669.53;4971871;28;20035;-67
2022/08/29 07:13:25;;;;;;;11.00;1.73;;;;;;;-142.37;100.00;59669.53;4972377;28;20034;-66
2022/08/29 07:15:51;;;;;;;3.80;1.38;;;;;;;-142.37;100.00;59669.53;4971749;28;20381;-66
2022/08/29 07:18:18;;;;;;;5.20;1.27;;;;;;;-142.37;100.00;59669.53;4975966;28;20096;-66
2022/08/29 07:20:43;;;;;;;2.67;1.17;;;;;;;-142.37;100.00;59669.53;4974520;28;20125;-66
2022/08/29 07:23:09;;;;;;;8.05;1.45;;;;;;;-142.37;100.00;59669.53;4974788;28;20412;-66
2022/08/29 07:25:36;;;;;;;2.15;1.30;;;;;;;-142.37;100.00;59669.53;4957715;28;20513;-67
2022/08/29 07:28:03;;;;;;;3.53;1.13;;;;;;;-142.37;100.00;59669.53;4975148;28;20047;-67
2022/08/29 07:30:29;;;;;;;2.22;0.70;;;;;;;-142.37;100.00;59669.53;4974818;28;20027;-67
2022/08/29 07:32:55;;;;;;;3.60;1.23;;;;;;;15.13;100.00;101742.34;4957899;28;20117;-67
2022/08/29 07:35:22;;;;;;;3.50;0.85;;;;;;;15.44;100.00;101761.41;4957222;28;20050;-66
2022/08/29 07:37:47;;;;;;;4.70;1.75;;;;;;;15.39;100.00;101758.25;4975967;28;20066;-68
2022/08/29 07:40:16;;;;;;;3.60;1.08;;;;;;;15.35;100.00;101750.38;4975288;28;20074;-67
2022/08/29 07:42:42;;;;;;;5.00;1.65;;;;;;;15.43;100.00;101754.28;4975730;28;20387;-66
2022/08/29 07:45:10;;;;;;;3.13;1.33;;;;;;;15.40;100.00;101749.13;4975000;28;20185;-66
2022/08/29 07:47:36;;;;;;;3.10;1.23;;;;;;;15.60;100.00;101761.84;4957464;28;20118;-68
2022/08/29 07:50:03;;;;;;;3.53;1.30;;;;;;;15.82;100.00;101745.50;4957100;28;20173;-67
2022/08/29 07:52:29;;;;;;;3.22;1.50;;;;;;;-142.37;100.00;59669.53;4975050;28;20035;-66
2022/08/29 07:54:55;;;;;;;7.32;2.42;;;;;;;16.57;100.00;101762.41;4975182;28;20412;-68
2022/08/29 07:57:22;;;;;;;6.75;1.52;;;;;;;16.60;100.00;101757.56;4975226;28;20035;-67
2022/08/29 07:59:48;;;;;;;4.72;1.58;;;;;;;16.90;100.00;101764.81;4974734;28;20447;-67
2022/08/29 08:02:13;;;;;;;3.90;1.40;;;;;;;17.19;100.00;101759.44;4957228;28;20034;-69
2022/08/29 08:04:39;;;;;;;2.92;1.00;;;;;;;-142.37;100.00;59669.53;4974375;28;20039;-68
2022/08/29 08:07:05;;;;;;;4.18;1.25;;;;;;;16.77;98.41;101778.66;4956774;28;20031;-69
2022/08/29 08:09:31;;;;;;;3.63;1.15;;;;;;;16.77;99.85;101764.22;4974451;28;20074;-67
2022/08/29 08:11:56;;;;;;;4.68;1.20;;;;;;;16.83;99.31;101766.41;4956897;28;20027;-68
2022/08/29 08:14:22;;;;;;;5.13;1.30;;;;;;;16.74;98.39;101759.06;4973782;28;20039;-69
2022/08/29 08:16:47;;;;;;;3.78;1.50;;;;;;;16.58;96.97;101777.69;4956424;28;20038;-68
2022/08/29 08:19:13;;;;;;;3.92;1.00;;;;;;;16.76;97.02;101767.94;4974245;28;20373;-68
2022/08/29 08:21:40;;;;;;;2.40;1.17;;;;;;;17.32;94.26;101775.50;4974727;28;20255;-68
2022/08/29 08:24:13;;;;;;;5.65;1.42;;;;;;;17.32;94.26;101775.50;4974072;28;20511;-67
2022/08/29 08:27:37;;;;;;;3.08;0.90;;;;;;;-142.37;100.00;59669.53;4957028;28;20051;-67
2022/08/29 08:31:04;;;;;;;4.32;1.02;;;;;;;-142.37;100.00;59669.53;4973957;28;20058;-68
2022/08/29 08:34:29;;;;;;;2.10;1.10;;;;;;;-142.37;100.00;59669.53;4957325;28;20045;-68
2022/08/29 08:37:23;;;;;;;1.77;0.80;;;;;;;-142.37;100.00;59669.53;4974394;28;20483;-68
2022/08/29 08:39:49;;;;;;;5.60;1.20;;;;;;;-142.37;100.00;59669.53;4956893;28;20027;-68
2022/08/29 08:42:30;;;;;;;3.00;1.25;;;;;;;17.59;86.89;101777.47;4974221;28;20455;-67
2022/08/29 08:45:10;;;;;;;4.53;1.38;;;;;;;17.42;87.90;101765.44;4972857;28;20403;-67
2022/08/29 08:47:41;;;;;;;2.70;0.90;;;;;;;17.53;86.91;101765.31;4956691;28;20035;-66
2022/08/29 08:50:13;;;;;;;6.80;1.58;;;;;;;17.63;84.28;101766.16;4973416;28;20037;-67
2022/08/29 08:53:08;;;;;;;3.05;0.95;;;;;;;17.42;85.52;101782.63;4956554;28;20432;-66
2022/08/29 08:55:44;;;;;;;2.80;0.95;;;;;;;17.40;82.92;101784.63;4974115;28;20467;-67
2022/08/29 08:58:13;;;;;;;2.28;0.80;;;;;;;17.39;80.33;101777.47;4973369;28;20129;-66
2022/08/29 09:00:54;;;;;;;2.35;1.02;;;;;;;17.14;78.09;101787.06;4973891;28;20082;-67
2022/08/29 09:03:23;;;;;;;2.38;0.85;;;;;;;17.03;77.99;101787.16;4956257;28;20053;-66
2022/08/29 09:06:14;;;;;;;5.00;0.93;;;;;;;17.17;77.45;101798.63;4972329;28;20035;-67
2022/08/29 09:08:55;;;;;;;2.60;0.90;;;;;;;17.23;74.61;101800.78;4972899;28;20543;-67
2022/08/29 09:11:35;;;;;;;0.88;0.60;;;;;;;17.76;73.42;101805.84;4971528;28;20114;-66
2022/08/29 09:14:22;;;;;;;1.60;1.35;;;;;;;17.41;70.85;101799.94;4955534;28;20027;-68
2022/08/29 09:16:51;;;;;;;4.68;0.90;;;;;;;17.79;71.11;101789.22;4973034;28;20122;-66
2022/08/29 09:19:17;;;;;;;1.48;0.80;;;;;;;17.78;69.17;101792.94;4955580;28;20034;-65
2022/08/29 09:21:48;;;;;;;4.53;1.10;;;;;;;18.06;69.18;101796.63;4973458;28;20458;-64
2022/08/29 09:24:27;;;;;;;1.33;0.77;;;;;;;17.97;67.67;101798.34;4973280;28;20031;-65
2022/08/29 09:26:55;;;;;;;1.83;1.20;;;;;;;18.18;67.12;101804.50;4973496;28;20062;-67
2022/08/29 09:29:25;;;;;;;1.70;0.73;;;;;;;18.69;65.23;101795.03;4972608;28;20050;-66
2022/08/29 09:32:10;;;;;;;1.20;0.85;;;;;;;18.67;63.52;101813.38;4972798;28;20439;-69
2022/08/29 09:34:43;;;;;;;2.00;0.75;;;;;;;18.53;63.66;101797.50;4972438;28;20169;-66
2022/08/29 09:37:33;;;;;;;2.58;0.85;;;;;;;18.57;62.53;101793.47;4972415;28;20027;-67
2022/08/29 09:40:10;;;;;;;3.60;1.00;;;;;;;18.28;64.31;101813.47;4954960;28;20042;-67
2022/08/29 09:42:42;;;;;;;3.20;1.20;;;;;;;18.08;63.81;101817.25;4955125;28;20030;-66
2022/08/29 09:45:23;;;;;;;5.45;1.02;;;;;;;18.10;64.89;101812.50;4955323;28;20038;-66
2022/08/29 09:48:06;;;;;;;5.35;0.80;;;;;;;18.07;65.15;101815.53;4955459;28;20081;-64
2022/08/29 09:51:35;;;;;;;1.00;0.52;;;;;;;-142.37;100.00;59669.53;4954771;28;20394;-66
2022/08/29 09:54:12;;;;;;;3.97;0.60;;;;;;;17.78;64.77;101836.47;4954637;28;20129;-66
2022/08/29 09:56:47;;;;;;;3.08;0.88;;;;;;;17.56;65.95;101832.16;4970822;28;20422;-66
2022/08/29 09:59:32;;;;;;;3.65;0.90;;;;;;;17.72;64.43;101848.78;4971860;28;20041;-65
2022/08/29 10:02:56;;;;;;;1.35;0.57;;;;;;;17.87;64.59;101846.50;4972339;28;20035;-66
2022/08/29 10:05:27;;;;;;;2.25;0.70;;;;;;;17.82;63.51;101846.09;4932365;28;20039;-65
2022/08/29 10:07:53;;;;;;;2.47;0.70;;;;;;;17.67;62.93;101848.34;4971008;28;20045;-66
2022/08/29 10:10:22;;;;;;;3.65;1.10;;;;;;;17.54;61.88;101873.06;4955042;28;20030;-65
2022/08/29 10:13:10;;;;;;;1.73;0.90;;;;;;;17.51;62.45;101846.19;4972253;28;20031;-65
2022/08/29 10:15:51;;;;;;;1.55;0.70;;;;;;;17.55;61.98;101869.34;4971876;28;20034;-65
2022/08/29 10:18:19;;;;;;;1.30;0.30;;;;;;;17.44;62.34;101845.00;4954792;28;20122;-66
2022/08/29 10:21:09;;;;;;;1.85;0.85;;;;;;;17.61;63.43;101852.47;4971057;28;20034;-65
2022/08/29 10:23:41;;;;;;;2.90;0.93;;;;;;;17.53;63.47;101857.78;4972531;28;20045;-65
2022/08/29 10:26:34;;;;;;;1.98;0.52;;;;;;;17.52;63.99;101844.31;4970061;28;20031;-65
2022/08/29 10:29:29;;;;;;;1.75;0.50;;;;;;;17.20;63.71;101863.56;4971398;28;20145;-66
2022/08/29 10:32:01;;;;;;;3.20;1.00;;;;;;;17.23;62.64;101869.56;4941400;28;20447;-65
2022/08/29 10:34:45;;;;;;;1.90;0.57;;;;;;;17.20;62.25;101867.16;4971364;28;20178;-65
2022/08/29 10:37:38;;;;;;;1.80;0.63;;;;;;;17.34;61.69;101891.22;4969659;28;20031;-65
2022/08/29 10:40:36;;;;;;;1.92;0.68;;;;;;;17.11;61.45;101887.00;4971486;28;20038;-64
2022/08/29 10:43:27;;;;;;;2.80;0.73;;;;;;;17.06;62.28;101894.69;4971747;28;20106;-65
2022/08/29 10:45:53;;;;;;;2.15;1.10;;;;;;;17.00;63.18;101906.13;4971041;28;20613;-65
2022/08/29 10:48:36;;;;;;;3.13;0.73;;;;;;;16.92;62.79;101893.22;4970934;28;20023;-65
2022/08/29 10:51:32;;;;;;;3.22;0.80;;;;;;;16.97;62.43;101901.84;4954564;28;20023;-64
2022/08/29 10:54:22;;;;;;;2.30;0.70;;;;;;;16.98;62.51;101908.13;4958647;28;20031;-63
2022/08/29 10:56:50;;;;;;;2.05;0.90;;;;;;;17.01;60.61;101925.00;4975473;28;20487;-65
2022/08/29 10:59:25;;;;;;;2.00;0.60;;;;;;;16.95;60.14;101914.66;4974816;28;20444;-65
2022/08/29 11:01:58;;;;;;;5.15;1.10;;;;;;;17.19;60.25;101914.34;4974602;28;20427;-64
2022/08/29 11:04:33;;;;;;;1.23;0.32;;;;;;;16.92;60.77;101909.50;4976102;28;20038;-64
2022/08/29 11:07:10;;;;;;;3.60;0.80;;;;;;;17.10;60.70;101905.16;4975713;28;20081;-65
2022/08/29 11:09:45;;;;;;;1.42;0.90;;;;;;;17.23;60.83;101910.34;4975545;28;20031;-66
2022/08/29 11:12:28;;;;;;;1.05;0.50;;;;;;;16.98;61.03;101933.44;4974490;28;20513;-64
2022/08/29 11:15:06;;;;;;;3.67;0.68;;;;;;;17.05;61.54;101910.16;4975631;28;20035;-64
2022/08/29 11:17:37;;;;;;;1.10;0.32;;;;;;;17.11;61.98;101900.56;4975640;28;20058;-65
2022/08/29 11:20:14;;;;;;;6.70;1.02;;;;;;;16.98;62.61;101903.56;4975348;28;20502;-66
2022/08/29 11:23:13;;;;;;;4.55;0.60;;;;;;;16.96;62.76;101910.94;4975574;28;20027;-64
2022/08/29 11:25:40;;;;;;;4.68;0.98;;;;;;;17.03;62.28;101903.13;4975864;28;20027;-67
2022/08/29 11:28:12;;;;;;;1.75;0.50;;;;;;;17.00;63.03;101904.28;4975483;28;20066;-65
2022/08/29 11:31:06;;;;;;;2.90;0.80;;;;;;;17.12;63.01;101927.59;4973718;28;20057;-63
2022/08/29 11:33:47;;;;;;;2.45;0.70;;;;;;;16.95;62.43;101928.25;4975314;28;20031;-64
2022/08/29 11:36:31;;;;;;;2.92;0.52;;;;;;;16.79;62.66;101914.31;4975701;28;20030;-65
2022/08/29 11:39:34;;;;;;;2.83;0.50;;;;;;;16.65;62.36;101933.66;4973559;28;20501;-65
2022/08/29 11:42:04;;;;;;;2.10;0.70;;;;;;;16.69;62.12;101927.84;4973756;28;20042;-64
2022/08/29 11:44:39;;;;;;;2.55;0.85;;;;;;;16.54;62.08;101930.00;4974988;28;20054;-64
2022/08/29 11:47:30;;;;;;;2.28;0.80;;;;;;;16.62;61.63;101926.63;4974700;28;20453;-65
2022/08/29 11:50:20;;;;;;;1.27;0.60;;;;;;;16.58;62.07;101916.16;4974344;28;20134;-64
2022/08/29 11:52:56;;;;;;;2.35;0.50;;;;;;;16.73;61.55;101939.28;4957169;28;20069;-65
2022/08/29 11:55:26;;;;;;;2.58;0.93;;;;;;;16.75;61.00;101940.88;4957646;28;20529;-65
2022/08/29 11:57:56;;;;;;;2.55;0.65;;;;;;;16.79;60.67;101952.31;4975082;28;20041;-65
2022/08/29 12:00:52;;;;;;;1.30;0.60;;;;;;;16.76;60.42;101941.72;4975440;28;20033;-65
2022/08/29 12:03:33;;;;;;;3.60;0.55;;;;;;;16.91;61.41;101929.53;4973417;28;20035;-64
2022/08/29 12:06:12;;;;;;;5.53;2.10;;;;;;;16.85;60.65;101927.38;4972834;28;20458;-66
2022/08/29 12:08:47;;;;;;;1.92;0.93;;;;;;;16.85;60.64;101930.06;4957631;28;20026;-66
2022/08/29 12:11:13;;;;;;;1.63;0.70;;;;;;;16.79;60.63;101936.03;4974609;28;20031;-66
2022/08/29 12:13:47;;;;;;;1.25;0.50;;;;;;;16.61;60.92;101937.59;4975198;28;20034;-64
2022/08/29 12:16:16;;;;;;;2.47;0.68;;;;;;;16.67;60.44;101942.56;4973282;28;20070;-64
2022/08/29 12:18:51;;;;;;;1.98;0.45;;;;;;;16.63;60.08;101938.34;4957459;28;20054;-65
2022/08/29 12:21:45;;;;;;;2.33;0.90;;;;;;;16.94;59.78;101950.97;4957379;28;20055;-64
2022/08/29 12:24:40;;;;;;;2.83;1.02;;;;;;;16.91;59.37;101934.97;4957403;28;20038;-65
2022/08/29 12:27:22;;;;;;;4.40;0.68;;;;;;;17.17;59.13;101937.22;4956734;28;20051;-65
2022/08/29 12:29:51;;;;;;;1.73;0.80;;;;;;;17.35;58.39;101927.41;4957059;28;20023;-65
2022/08/29 12:32:20;;;;;;;2.65;0.68;;;;;;;17.22;57.20;101937.66;4957047;28;20443;-65
2022/08/29 12:35:11;;;;;;;2.42;0.68;;;;;;;17.25;56.19;101931.94;4972371;28;20042;-64
2022/08/29 12:37:45;;;;;;;1.63;0.60;;;;;;;17.43;56.47;101946.59;4956560;28;20062;-65
2022/08/29 12:40:55;;;;;;;1.20;1.10;;;;;;;17.44;54.15;101942.88;4956590;28;20027;-65
2022/08/29 12:43:42;;;;;;;1.50;0.50;;;;;;;17.41;53.56;101935.88;4911001;28;20125;-66
2022/08/29 12:46:31;;;;;;;3.72;0.98;;;;;;;17.51;53.46;101938.63;4956494;28;20121;-64
2022/08/29 12:49:41;;;;;;;1.08;0.35;;;;;;;17.65;53.90;101935.50;4972338;28;20134;-67
2022/08/29 12:52:19;;;;;;;0.88;0.47;;;;;;;17.71;53.62;101943.13;4945756;28;20070;-64
2022/08/29 12:54:45;;;;;;;3.13;0.65;;;;;;;17.73;53.62;101940.25;4973781;28;20031;-65
2022/08/29 12:57:21;;;;;;;2.05;0.45;;;;;;;17.80;53.50;101940.53;4973761;28;20058;-64
2022/08/29 12:59:50;;;;;;;1.77;0.65;;;;;;;18.09;53.00;101938.72;4956183;28;20118;-64
2022/08/29 13:02:36;;;;;;;2.72;0.73;;;;;;;17.92;53.29;101942.13;4955987;28;20035;-64
2022/08/29 13:05:16;;;;;;;4.05;1.13;;;;;;;18.02;51.50;101959.34;4973067;28;20039;-66
2022/08/29 13:07:56;;;;;;;5.10;0.65;;;;;;;17.56;49.81;101958.09;4973036;28;20037;-65
2022/08/29 13:10:22;;;;;;;2.63;0.70;;;;;;;17.68;51.02;101962.44;4955672;28;20026;-64
2022/08/29 13:12:48;;;;;;;3.45;0.80;;;;;;;17.56;53.39;101946.34;4973265;28;20038;-65